Time;durP1;ratioP1;P1;durP2;ratioP2;P2;SDS_P1;SDS_P2;PMS_P1;PMS_P2;Temp;Humidity;BMP_temperature;BMP_pressure;BME280_temperature;BME280_humidity;BME280_pressure;Samples;Min_cycle;Max_cycle;Signal;HPM_P1;HPM_P2
2022/12/06 00:02:09;;;;;;;9.45;5.43;;;8.00;93.70;;;;;;5038513;28;20151;-74
2022/12/06 00:04:35;;;;;;;8.85;5.70;;;8.10;93.80;;;;;;5043762;28;20104;-74
2022/12/06 00:07:01;;;;;;;8.55;5.18;;;8.00;93.70;;;;;;5041388;28;20017;-74
2022/12/06 00:09:29;;;;;;;8.27;5.57;;;8.00;93.70;;;;;;5042418;28;20033;-74
2022/12/06 00:11:56;;;;;;;8.07;4.97;;;8.00;93.70;;;;;;5024930;28;20072;-74
2022/12/06 00:14:23;;;;;;;9.07;5.10;;;8.00;93.70;;;;;;5042510;28;20059;-74
2022/12/06 00:16:49;;;;;;;9.13;5.38;;;8.00;93.90;;;;;;5040173;28;20482;-75
2022/12/06 00:19:20;;;;;;;7.60;4.90;;;8.00;93.80;;;;;;5045009;28;20171;-74
2022/12/06 00:21:46;;;;;;;10.63;6.00;;;8.00;93.70;;;;;;5042260;28;20018;-75
2022/12/06 00:24:19;;;;;;;8.20;4.95;;;8.00;93.70;;;;;;5044361;28;20047;-75
2022/12/06 00:26:46;;;;;;;8.90;5.75;;;8.00;93.70;;;;;;5038204;28;20476;-74
2022/12/06 00:29:23;;;;;;;7.70;4.95;;;8.00;93.70;;;;;;5042617;28;20029;-75
2022/12/06 00:31:49;;;;;;;9.57;5.85;;;8.00;93.70;;;;;;5039830;28;20057;-74
2022/12/06 00:34:15;;;;;;;7.68;5.05;;;8.00;93.70;;;;;;5043620;28;20112;-75
2022/12/06 00:36:41;;;;;;;8.82;5.95;;;8.10;93.80;;;;;;5043370;28;20025;-74
2022/12/06 00:39:12;;;;;;;8.48;4.40;;;8.10;93.80;;;;;;5040861;28;20515;-74
2022/12/06 00:41:38;;;;;;;9.07;5.55;;;8.10;93.80;;;;;;5042000;28;20434;-74
2022/12/06 00:44:05;;;;;;;9.20;5.93;;;8.10;93.80;;;;;;5045879;28;20036;-74
2022/12/06 00:46:31;;;;;;;12.55;6.47;;;8.10;93.80;;;;;;5030144;28;20372;-74
2022/12/06 00:48:59;;;;;;;9.52;5.18;;;8.10;93.80;;;;;;5045336;28;20025;-74
2022/12/06 00:51:27;;;;;;;9.63;6.10;;;8.10;93.80;;;;;;5046945;28;20068;-74
2022/12/06 00:53:55;;;;;;;9.98;6.93;;;8.10;93.80;;;;;;5026307;28;20494;-74
2022/12/06 00:56:21;;;;;;;10.15;5.28;;;8.10;93.80;;;;;;5014649;28;20072;-73
2022/12/06 00:58:46;;;;;;;8.88;6.10;;;8.10;93.80;;;;;;5025788;28;20035;-74
2022/12/06 01:01:17;;;;;;;10.45;6.63;;;8.00;93.80;;;;;;5050304;28;20032;-73
2022/12/06 01:03:44;;;;;;;9.75;6.72;;;8.00;93.90;;;;;;5036761;28;20013;-73
2022/12/06 01:06:12;;;;;;;10.15;6.05;;;8.00;93.90;;;;;;5049014;28;20029;-74
2022/12/06 01:08:40;;;;;;;7.43;4.90;;;7.90;94.00;;;;;;5039761;28;20057;-74
2022/12/06 01:11:06;;;;;;;8.98;5.97;;;7.90;94.10;;;;;;5046399;28;20025;-74
2022/12/06 01:13:33;;;;;;;9.25;6.07;;;7.90;94.00;;;;;;5045212;28;20137;-75
2022/12/06 01:16:07;;;;;;;9.32;6.05;;;7.90;93.90;;;;;;5046998;28;20032;-75
2022/12/06 01:18:33;;;;;;;9.30;5.85;;;7.90;94.00;;;;;;5041031;28;20475;-74
2022/12/06 01:21:10;;;;;;;10.20;6.15;;;7.90;94.00;;;;;;5049224;28;20023;-74
2022/12/06 01:23:36;;;;;;;10.75;5.80;;;7.90;94.10;;;;;;5044723;28;20029;-75
2022/12/06 01:26:03;;;;;;;8.60;5.70;;;7.90;94.10;;;;;;5049347;28;20025;-73
2022/12/06 01:28:29;;;;;;;8.52;4.32;;;7.80;94.00;;;;;;5029715;28;20024;-74
2022/12/06 01:30:55;;;;;;;10.60;6.50;;;7.80;94.20;;;;;;5048886;28;20033;-74
2022/12/06 01:33:21;;;;;;;11.45;6.80;;;7.70;94.30;;;;;;5031572;28;20553;-74
2022/12/06 01:35:47;;;;;;;11.85;6.10;;;7.70;94.20;;;;;;5044364;28;20021;-73
2022/12/06 01:38:13;;;;;;;9.05;5.03;;;7.70;94.20;;;;;;5046810;28;20100;-74
2022/12/06 01:40:46;;;;;;;13.23;5.82;;;7.70;94.30;;;;;;5032645;28;20136;-74
2022/12/06 01:43:33;;;;;;;9.32;6.00;;;7.70;94.40;;;;;;5043470;28;20463;-75
2022/12/06 01:46:05;;;;;;;7.97;5.60;;;7.70;94.40;;;;;;5039972;28;20040;-73
2022/12/06 01:48:32;;;;;;;12.52;6.57;;;7.70;94.30;;;;;;5030009;28;20119;-74
2022/12/06 01:50:59;;;;;;;10.85;6.95;;;7.70;94.30;;;;;;5038037;28;20056;-73
2022/12/06 01:53:25;;;;;;;12.25;6.13;;;7.70;94.30;;;;;;5030238;28;20017;-75
2022/12/06 01:55:55;;;;;;;9.60;5.65;;;7.80;94.30;;;;;;5037487;28;20031;-74
2022/12/06 01:58:29;;;;;;;10.43;6.45;;;7.70;94.30;;;;;;5047477;28;20455;-75
2022/12/06 02:00:54;;;;;;;11.38;7.20;;;7.70;94.30;;;;;;5041557;28;20070;-74
2022/12/06 02:03:24;;;;;;;10.60;5.78;;;7.80;94.30;;;;;;5030245;28;20033;-74
2022/12/06 02:05:50;;;;;;;14.07;7.63;;;7.70;94.30;;;;;;5038511;28;20433;-74
2022/12/06 02:08:17;;;;;;;10.35;5.68;;;7.70;94.30;;;;;;5045467;28;20089;-73
2022/12/06 02:10:56;;;;;;;14.35;8.40;;;7.70;94.40;;;;;;5014058;28;20033;-75
2022/12/06 02:13:25;;;;;;;9.30;5.75;;;7.70;94.40;;;;;;5048074;28;20048;-74
2022/12/06 02:16:29;;;;;;;11.13;6.38;;;7.70;94.40;;;;;;5043933;28;20040;-74
2022/12/06 02:19:09;;;;;;;15.35;6.25;;;7.70;94.50;;;;;;5039235;28;20036;-74
2022/12/06 02:21:46;;;;;;;13.45;6.03;;;7.70;94.40;;;;;;5040313;28;20025;-74
2022/12/06 02:24:34;;;;;;;12.65;6.80;;;7.70;94.40;;;;;;5042246;28;20501;-74
2022/12/06 02:27:33;;;;;;;12.07;6.97;;;7.70;94.50;;;;;;5042606;28;20771;-73
2022/12/06 02:30:31;;;;;;;10.02;5.22;;;7.70;94.50;;;;;;5034373;28;20055;-74
2022/12/06 02:33:03;;;;;;;10.70;6.22;;;7.70;94.60;;;;;;5042046;28;20021;-73
2022/12/06 02:35:55;;;;;;;12.55;6.40;;;7.70;94.60;;;;;;5043591;28;20022;-74
2022/12/06 02:38:48;;;;;;;13.05;6.18;;;7.70;94.60;;;;;;5034985;28;20048;-74
2022/12/06 02:41:44;;;;;;;16.00;7.95;;;7.70;94.60;;;;;;5028371;28;20021;-73
2022/12/06 02:44:19;;;;;;;13.35;6.32;;;7.70;94.60;;;;;;5048303;28;20037;-74
2022/12/06 02:46:47;;;;;;;15.48;8.18;;;7.70;94.50;;;;;;5039497;28;20154;-74
2022/12/06 02:49:13;;;;;;;13.35;7.90;;;7.70;94.50;;;;;;5035606;28;20037;-74
2022/12/06 02:51:40;;;;;;;10.20;4.30;;;7.80;94.50;;;;;;5038883;28;20707;-74
2022/12/06 02:54:09;;;;;;;15.52;7.88;;;7.80;94.60;;;;;;5036647;28;20032;-75
2022/12/06 02:56:35;;;;;;;12.07;7.10;;;7.80;94.50;;;;;;5029352;28;20048;-73
2022/12/06 02:59:01;;;;;;;11.57;6.50;;;7.70;94.50;;;;;;5043088;28;20036;-73
2022/12/06 03:01:30;;;;;;;10.57;5.82;;;7.70;94.50;;;;;;5042543;28;20025;-74
2022/12/06 03:04:11;;;;;;;13.52;7.05;;;7.80;94.50;;;;;;5047722;28;20021;-74
2022/12/06 03:07:17;;;;;;;16.88;7.55;;;7.80;94.40;;;;;;5043279;28;20025;-74
2022/12/06 03:10:06;;;;;;;12.90;5.90;;;7.80;94.40;;;;;;5034286;28;20053;-73
2022/12/06 03:12:56;;;;;;;11.02;6.72;;;7.80;94.40;;;;;;5040644;28;20135;-74
2022/12/06 03:15:54;;;;;;;12.23;6.15;;;7.80;94.50;;;;;;5035540;28;20021;-73
2022/12/06 03:18:33;;;;;;;12.70;6.15;;;7.70;94.50;;;;;;5031462;28;20036;-74
2022/12/06 03:21:04;;;;;;;18.00;6.97;;;7.70;94.50;;;;;;5043070;28;20314;-74
2022/12/06 03:23:35;;;;;;;11.32;5.43;;;7.70;94.60;;;;;;5044748;28;20055;-73
2022/12/06 03:26:03;;;;;;;13.00;7.72;;;7.70;94.60;;;;;;5050721;28;20021;-74
2022/12/06 03:28:29;;;;;;;19.42;9.75;;;7.70;94.60;;;;;;5047531;28;20021;-73
2022/12/06 03:31:00;;;;;;;11.88;6.38;;;7.70;94.50;;;;;;5051497;28;20090;-75
2022/12/06 03:33:28;;;;;;;15.00;7.10;;;7.70;94.50;;;;;;5039189;28;20037;-74
2022/12/06 03:35:56;;;;;;;18.52;6.70;;;7.80;94.50;;;;;;5044414;28;20095;-73
2022/12/06 03:38:51;;;;;;;12.93;7.55;;;7.70;94.50;;;;;;5046960;28;20035;-73
2022/12/06 03:41:20;;;;;;;12.30;7.22;;;7.70;94.50;;;;;;5044401;28;20029;-74
2022/12/06 03:43:45;;;;;;;14.77;6.65;;;7.60;94.40;;;;;;5024171;28;20091;-74
2022/12/06 03:46:25;;;;;;;14.70;7.82;;;7.60;94.60;;;;;;5052600;28;20028;-74
2022/12/06 03:49:14;;;;;;;13.10;6.10;;;7.50;94.60;;;;;;5043880;28;20033;-74
2022/12/06 03:51:40;;;;;;;12.07;5.40;;;7.60;94.70;;;;;;5040031;28;20068;-74
2022/12/06 03:54:07;;;;;;;11.90;6.68;;;7.60;94.70;;;;;;5050604;28;20026;-75
2022/12/06 03:56:35;;;;;;;13.63;7.88;;;7.60;94.70;;;;;;5034994;28;20526;-74
2022/12/06 03:59:06;;;;;;;15.75;6.65;;;7.60;94.60;;;;;;5046946;28;20104;-73
2022/12/06 04:01:32;;;;;;;15.38;7.47;;;7.60;94.50;;;;;;5033057;28;20022;-74
2022/12/06 04:03:58;;;;;;;12.70;6.72;;;7.60;94.50;;;;;;5047112;28;20029;-75
2022/12/06 04:06:24;;;;;;;14.07;7.30;;;7.70;94.50;;;;;;5037981;28;20106;-74
2022/12/06 04:08:50;;;;;;;8.70;4.97;;;7.60;94.40;;;;;;5049116;28;20541;-73
2022/12/06 04:11:15;;;;;;;15.57;7.53;;;7.60;94.50;;;;;;5048212;28;20044;-74
2022/12/06 04:13:41;;;;;;;13.30;7.00;;;7.60;94.50;;;;;;5034280;28;20530;-74
2022/12/06 04:18:09;;;;;;;16.35;7.57;;;7.60;94.50;;;;;;5048357;28;20052;-73
2022/12/06 04:18:54;;;;;;;15.68;8.02;;;7.70;94.50;;;;;;5036981;28;20033;-74
2022/12/06 04:23:58;;;;;;;11.77;6.10;;;7.70;94.40;;;;;;5046868;28;20443;-73
2022/12/06 04:26:25;;;;;;;18.05;7.90;;;7.70;94.30;;;;;;5048041;28;20055;-73
2022/12/06 04:39:51;;;;;;;16.23;6.65;;;7.60;94.50;;;;;;5042317;28;20056;-74
2022/12/06 04:45:04;;;;;;;15.13;6.68;;;7.50;94.60;;;;;;5042613;28;20071;-75
2022/12/06 04:47:30;;;;;;;19.10;7.45;;;7.50;94.50;;;;;;5044512;28;20025;-74
2022/12/06 04:49:55;;;;;;;10.98;6.38;;;7.50;94.50;;;;;;5044762;28;20475;-74
2022/12/06 04:52:21;;;;;;;11.57;5.70;;;7.50;94.50;;;;;;5049558;28;20048;-75
2022/12/06 04:54:47;;;;;;;15.13;8.20;;;7.50;94.40;;;;;;5048533;28;20022;-75
2022/12/06 04:57:15;;;;;;;14.90;7.53;;;7.60;94.40;;;;;;5042696;28;20607;-74
2022/12/06 04:59:44;;;;;;;20.25;7.57;;;7.60;94.40;;;;;;5048374;28;20021;-74
2022/12/06 05:02:12;;;;;;;12.65;6.20;;;7.60;94.30;;;;;;5039855;28;20094;-75
2022/12/06 05:04:38;;;;;;;12.70;5.85;;;7.50;94.30;;;;;;5046441;28;20121;-75
2022/12/06 05:07:04;;;;;;;13.73;5.75;;;7.50;94.40;;;;;;5046260;28;20071;-76
2022/12/06 05:09:30;;;;;;;11.30;6.03;;;7.50;94.50;;;;;;5049870;28;20028;-75
2022/12/06 05:11:55;;;;;;;12.32;6.03;;;7.50;94.50;;;;;;5024885;28;20420;-75
2022/12/06 05:14:21;;;;;;;15.88;7.20;;;7.50;94.40;;;;;;5026461;28;20171;-74
2022/12/06 05:16:47;;;;;;;19.48;7.30;;;7.50;94.50;;;;;;5024058;28;20068;-74
2022/12/06 05:19:13;;;;;;;16.65;6.47;;;7.40;94.40;;;;;;5025197;28;20056;-74
2022/12/06 05:21:39;;;;;;;11.98;6.32;;;7.50;94.40;;;;;;5027212;28;21324;-74
2022/12/06 05:24:05;;;;;;;15.90;6.72;;;7.50;94.40;;;;;;5014201;28;20536;-74
2022/12/06 05:26:30;;;;;;;12.48;6.30;;;7.50;94.40;;;;;;5028908;28;20022;-75
2022/12/06 05:28:57;;;;;;;13.02;6.03;;;7.50;94.30;;;;;;5029127;28;20029;-75
2022/12/06 05:31:24;;;;;;;14.70;6.38;;;7.50;94.30;;;;;;5025120;28;20038;-74
2022/12/06 05:33:50;;;;;;;10.35;5.30;;;7.50;94.30;;;;;;5027598;28;20021;-75
2022/12/06 05:36:23;;;;;;;12.65;5.82;;;7.50;94.40;;;;;;5026004;28;20101;-75
2022/12/06 05:38:49;;;;;;;12.07;6.03;;;7.50;94.40;;;;;;5027917;28;20021;-74
2022/12/06 05:41:15;;;;;;;13.50;7.07;;;7.50;94.30;;;;;;5025489;28;20029;-74
2022/12/06 05:43:41;;;;;;;12.57;6.22;;;7.60;94.30;;;;;;5040653;28;20029;-74
2022/12/06 05:46:07;;;;;;;10.65;5.40;;;7.50;94.20;;;;;;5027134;28;20034;-74
2022/12/06 05:48:33;;;;;;;11.88;5.88;;;7.60;94.20;;;;;;5025417;28;20017;-75
2022/12/06 05:50:59;;;;;;;16.17;6.55;;;7.60;94.20;;;;;;5027584;28;20503;-74
2022/12/06 05:53:24;;;;;;;14.02;6.45;;;7.60;94.20;;;;;;5015291;28;20025;-74
2022/12/06 05:55:51;;;;;;;13.48;5.97;;;7.60;94.20;;;;;;5025054;28;20025;-73
2022/12/06 05:58:17;;;;;;;16.02;6.82;;;7.60;94.20;;;;;;5016569;28;20033;-74
2022/12/06 06:00:49;;;;;;;15.13;6.38;;;7.60;94.30;;;;;;5028840;28;20348;-75
2022/12/06 06:03:16;;;;;;;15.52;6.65;;;7.60;94.20;;;;;;5021077;28;20029;-74
2022/12/06 06:05:49;;;;;;;15.48;6.95;;;7.60;94.20;;;;;;5019163;28;20041;-74
2022/12/06 06:08:16;;;;;;;17.42;7.57;;;7.60;94.20;;;;;;5024219;28;20067;-75
2022/12/06 06:10:42;;;;;;;13.32;6.25;;;7.60;94.20;;;;;;5027161;28;20593;-75
2022/12/06 06:13:09;;;;;;;12.82;6.05;;;7.60;94.10;;;;;;5045409;28;20053;-74
2022/12/06 06:15:35;;;;;;;13.73;7.50;;;7.60;94.10;;;;;;5048847;28;20025;-73
2022/12/06 06:18:00;;;;;;;13.27;6.75;;;7.60;94.10;;;;;;5045910;28;20024;-74
2022/12/06 06:20:26;;;;;;;14.60;6.47;;;7.60;94.10;;;;;;5047183;28;20021;-74
2022/12/06 06:22:53;;;;;;;11.95;6.20;;;7.50;94.10;;;;;;5027928;28;20036;-74
2022/12/06 06:25:19;;;;;;;17.85;7.40;;;7.50;94.10;;;;;;5047665;28;20052;-75
2022/12/06 06:27:44;;;;;;;15.70;6.85;;;7.50;94.20;;;;;;5042996;28;20091;-75
2022/12/06 06:30:11;;;;;;;10.48;5.25;;;7.60;94.20;;;;;;5045920;28;20083;-75
2022/12/06 06:32:37;;;;;;;13.10;6.38;;;7.60;94.40;;;;;;5033046;28;20059;-74
2022/12/06 06:35:04;;;;;;;15.15;7.53;;;7.60;94.10;;;;;;5043474;28;20024;-74
2022/12/06 06:37:31;;;;;;;15.65;6.55;;;7.60;94.20;;;;;;5047605;28;20021;-74
2022/12/06 06:39:58;;;;;;;12.90;5.75;;;7.60;94.10;;;;;;5015642;28;20020;-75
2022/12/06 06:42:23;;;;;;;14.50;6.78;;;7.50;94.10;;;;;;5047124;28;20128;-74
2022/12/06 06:44:50;;;;;;;18.88;8.45;;;7.60;94.10;;;;;;5043968;28;20714;-73
2022/12/06 06:47:16;;;;;;;13.63;6.85;;;7.60;94.10;;;;;;5035371;28;20017;-75
2022/12/06 06:49:41;;;;;;;10.57;5.15;;;7.60;94.10;;;;;;5044653;28;20380;-74
2022/12/06 06:52:07;;;;;;;18.65;7.15;;;7.60;94.30;;;;;;5030091;28;20040;-74
2022/12/06 06:54:33;;;;;;;22.20;7.68;;;7.50;94.30;;;;;;5042157;28;20025;-74
2022/12/06 06:56:58;;;;;;;16.08;7.20;;;7.60;94.30;;;;;;5041694;28;20036;-74
2022/12/06 06:59:24;;;;;;;11.82;6.85;;;7.60;94.30;;;;;;5042088;28;20017;-75
2022/12/06 07:01:50;;;;;;;14.05;7.03;;;7.50;94.20;;;;;;5017904;28;20617;-75
2022/12/06 07:04:16;;;;;;;18.92;7.22;;;7.50;94.20;;;;;;5027629;28;20021;-74
2022/12/06 07:06:43;;;;;;;15.93;7.97;;;7.50;94.50;;;;;;5034456;28;20163;-74
2022/12/06 07:09:09;;;;;;;12.52;6.40;;;7.50;94.20;;;;;;5036816;28;20104;-74
2022/12/06 07:11:35;;;;;;;13.27;6.30;;;7.50;94.50;;;;;;5034307;28;20813;-74
2022/12/06 07:14:02;;;;;;;14.30;8.02;;;7.50;94.30;;;;;;5040665;28;20029;-73
2022/12/06 07:16:28;;;;;;;11.27;5.88;;;7.40;94.30;;;;;;5038085;28;20031;-74
2022/12/06 07:18:53;;;;;;;16.67;6.78;;;7.40;94.30;;;;;;5036766;28;20025;-74
2022/12/06 07:21:22;;;;;;;15.35;7.57;;;7.40;94.40;;;;;;5037693;28;20025;-74
2022/12/06 07:23:48;;;;;;;15.93;7.22;;;7.40;94.40;;;;;;5037948;28;20026;-74
2022/12/06 07:26:23;;;;;;;13.40;7.13;;;7.50;94.30;;;;;;5038826;28;20087;-76
2022/12/06 07:28:50;;;;;;;14.15;7.18;;;7.50;94.20;;;;;;5016423;28;20029;-74
2022/12/06 07:31:21;;;;;;;11.80;6.07;;;7.50;94.20;;;;;;5030751;28;20048;-74
2022/12/06 07:33:50;;;;;;;16.25;7.63;;;7.50;94.20;;;;;;5014930;28;20091;-74
2022/12/06 07:36:16;;;;;;;12.32;7.38;;;7.50;94.20;;;;;;5034534;28;20078;-75
2022/12/06 07:38:45;;;;;;;12.70;5.93;;;7.50;94.10;;;;;;5036194;28;20042;-74
2022/12/06 07:46:42;;;;;;;13.40;6.68;;;7.60;94.00;;;;;;5033393;28;20075;-75
2022/12/06 07:49:08;;;;;;;12.63;5.95;;;7.60;94.00;;;;;;5034685;28;20570;-74
2022/12/06 07:51:34;;;;;;;13.95;4.95;;;7.60;93.90;;;;;;5037692;28;20440;-73
2022/12/06 07:54:00;;;;;;;8.68;4.97;;;7.60;93.90;;;;;;5037665;28;20121;-73
2022/12/06 07:56:27;;;;;;;11.95;4.25;;;7.60;93.90;;;;;;5030690;28;20383;-75
2022/12/06 07:58:53;;;;;;;10.82;4.88;;;7.60;93.90;;;;;;5033361;28;20029;-74
2022/12/06 08:01:19;;;;;;;12.23;5.88;;;7.70;93.80;;;;;;5032393;28;20422;-73
2022/12/06 08:03:44;;;;;;;11.55;5.22;;;7.70;93.70;;;;;;5035084;28;20017;-74
2022/12/06 08:06:10;;;;;;;6.07;3.78;;;7.70;93.50;;;;;;5038437;28;20027;-74
2022/12/06 08:08:36;;;;;;;8.55;3.78;;;7.70;93.50;;;;;;5040562;28;20021;-75
2022/12/06 08:11:07;;;;;;;8.35;4.85;;;7.70;93.50;;;;;;5039078;28;20581;-74
2022/12/06 08:13:33;;;;;;;15.40;5.28;;;7.70;93.40;;;;;;5041575;28;20071;-75
2022/12/06 08:16:02;;;;;;;12.90;5.13;;;7.70;93.40;;;;;;5041933;28;20029;-74
2022/12/06 08:18:29;;;;;;;11.75;5.03;;;7.70;93.30;;;;;;5019692;28;20534;-74
2022/12/06 08:20:54;;;;;;;12.02;5.18;;;7.70;93.30;;;;;;5035665;28;20033;-74
2022/12/06 08:23:20;;;;;;;11.25;5.70;;;7.60;93.60;;;;;;5037594;28;20091;-74
2022/12/06 08:25:45;;;;;;;13.70;5.80;;;7.70;93.50;;;;;;5040332;28;20021;-73
2022/12/06 08:28:11;;;;;;;13.77;5.88;;;7.60;93.50;;;;;;5038068;28;20045;-74
2022/12/06 08:30:40;;;;;;;15.35;5.63;;;7.60;93.50;;;;;;5041195;28;20036;-74
2022/12/06 08:33:06;;;;;;;11.43;5.38;;;7.60;93.50;;;;;;5041053;28;20021;-74
2022/12/06 08:35:35;;;;;;;11.25;5.63;;;7.60;93.40;;;;;;5048247;28;20032;-74
2022/12/06 08:38:01;;;;;;;13.87;6.00;;;7.60;93.40;;;;;;5030846;28;20036;-73
2022/12/06 08:40:26;;;;;;;8.88;5.35;;;7.60;93.60;;;;;;5044741;28;20092;-75
2022/12/06 08:42:52;;;;;;;13.70;5.65;;;7.50;93.40;;;;;;5034916;28;20071;-74
2022/12/06 08:45:18;;;;;;;13.95;5.88;;;7.50;93.30;;;;;;5045776;28;20028;-74
2022/12/06 08:47:43;;;;;;;9.68;5.43;;;7.40;93.30;;;;;;5040668;28;20091;-74
2022/12/06 08:50:09;;;;;;;13.68;5.50;;;7.30;93.30;;;;;;5015296;28;20113;-74
2022/12/06 08:52:35;;;;;;;13.35;6.32;;;7.30;93.40;;;;;;5035317;28;20480;-74
2022/12/06 08:55:01;;;;;;;17.90;5.03;;;7.30;93.40;;;;;;5040660;28;20833;-74
2022/12/06 08:57:27;;;;;;;10.70;5.18;;;7.30;93.60;;;;;;5039455;28;20025;-74
2022/12/06 08:59:53;;;;;;;8.45;4.55;;;7.80;94.20;;;;;;5040197;28;20032;-75
2022/12/06 09:02:18;;;;;;;10.57;3.85;;;8.90;91.90;;;;;;5040861;28;20029;-74
2022/12/06 09:04:44;;;;;;;7.57;3.85;;;10.10;88.00;;;;;;5041263;28;20029;-74
2022/12/06 09:07:09;;;;;;;9.95;3.63;;;11.10;82.50;;;;;;5036768;28;20032;-75
2022/12/06 09:09:35;;;;;;;8.30;3.33;;;11.90;78.80;;;;;;5042114;28;21896;-74
2022/12/06 09:12:01;;;;;;;6.93;3.25;;;12.60;75.80;;;;;;5043500;28;20045;-73
2022/12/06 09:14:26;;;;;;;6.30;3.08;;;13.10;73.50;;;;;;5041551;28;20021;-73
2022/12/06 09:16:52;;;;;;;8.15;2.30;;;13.60;71.10;;;;;;5043469;28;20391;-74
2022/12/06 09:19:18;;;;;;;7.63;2.78;;;14.00;69.80;;;;;;5042482;28;20025;-73
2022/12/06 09:21:45;;;;;;;5.28;2.53;;;14.40;67.80;;;;;;5041223;28;20029;-73
2022/12/06 09:24:13;;;;;;;7.88;2.65;;;14.60;66.30;;;;;;5039177;28;20053;-73
2022/12/06 09:26:39;;;;;;;6.60;2.50;;;14.90;65.40;;;;;;5036716;28;20538;-73
2022/12/06 09:29:08;;;;;;;6.05;2.20;;;15.00;65.00;;;;;;5033664;28;20505;-74
2022/12/06 09:31:38;;;;;;;4.03;2.00;;;15.20;64.50;;;;;;5039820;28;20059;-74
2022/12/06 09:34:09;;;;;;;4.85;2.20;;;15.40;63.80;;;;;;5040421;28;20060;-74
2022/12/06 09:36:40;;;;;;;;;;;15.40;63.30;;;;;;5040947;28;20035;-74
2022/12/06 09:39:17;;;;;;;7.97;2.67;;;15.40;63.10;;;;;;5036554;28;19909;-75
2022/12/06 09:41:43;;;;;;;5.80;2.15;;;15.60;62.40;;;;;;5036007;28;20036;-73
2022/12/06 09:44:43;;;;;;;5.85;2.70;;;15.70;62.10;;;;;;5039329;28;20030;-74
2022/12/06 09:47:17;;;;;;;5.37;2.03;;;15.60;62.30;;;;;;5039518;28;20551;-75
2022/12/06 09:50:02;;;;;;;6.50;2.05;;;15.80;62.60;;;;;;5034357;28;20586;-73
2022/12/06 09:52:46;;;;;;;3.85;1.75;;;16.00;61.00;;;;;;5040852;28;20061;-76
2022/12/06 09:55:28;;;;;;;6.93;2.45;;;16.20;60.50;;;;;;5036838;28;20041;-73
2022/12/06 09:58:09;;;;;;;5.78;2.50;;;16.50;59.70;;;;;;5041375;28;20407;-75
2022/12/06 10:01:06;;;;;;;4.47;1.85;;;16.60;58.90;;;;;;5033508;28;20033;-74
2022/12/06 10:04:03;;;;;;;5.68;1.85;;;16.80;58.60;;;;;;5035002;28;20162;-74
2022/12/06 10:06:39;;;;;;;5.28;1.85;;;16.80;58.20;;;;;;5019936;28;20383;-74
2022/12/06 10:09:34;;;;;;;4.60;1.50;;;16.60;58.50;;;;;;5034428;28;20027;-74
2022/12/06 10:12:08;;;;;;;5.30;2.35;;;16.70;58.40;;;;;;5011723;28;20045;-74
2022/12/06 10:14:46;;;;;;;4.53;1.77;;;16.80;58.10;;;;;;5031915;28;20032;-73
2022/12/06 10:17:30;;;;;;;5.63;2.10;;;16.80;57.80;;;;;;5018654;28;20037;-74
2022/12/06 10:20:16;;;;;;;4.85;1.83;;;16.30;58.10;;;;;;5031364;28;20025;-73
2022/12/06 10:22:48;;;;;;;5.97;1.90;;;16.30;58.80;;;;;;5038395;28;20017;-73
2022/12/06 10:25:26;;;;;;;9.38;2.35;;;16.50;58.50;;;;;;5037916;28;20036;-74
2022/12/06 10:28:12;;;;;;;6.85;2.40;;;16.50;57.80;;;;;;5020317;28;20028;-73
2022/12/06 10:30:49;;;;;;;5.55;2.20;;;16.70;57.40;;;;;;5037387;28;20026;-73
2022/12/06 10:33:57;;;;;;;5.63;1.63;;;16.40;57.40;;;;;;5018112;28;20029;-74
2022/12/06 10:36:32;;;;;;;5.32;1.90;;;16.00;58.10;;;;;;5018156;28;20048;-73
2022/12/06 10:39:14;;;;;;;5.75;1.83;;;15.50;59.50;;;;;;5032066;28;20124;-72
2022/12/06 10:41:53;;;;;;;5.10;2.03;;;15.00;60.40;;;;;;5033134;28;20091;-73
2022/12/06 10:44:26;;;;;;;6.80;2.20;;;14.60;61.70;;;;;;5035326;28;20024;-73
2022/12/06 10:47:06;;;;;;;8.05;2.25;;;14.10;62.90;;;;;;5018868;28;20021;-74
2022/12/06 10:49:34;;;;;;;4.65;2.00;;;13.80;64.80;;;;;;5022290;28;20048;-74
2022/12/06 10:52:15;;;;;;;9.63;3.58;;;14.10;64.20;;;;;;5035049;28;20048;-74
2022/12/06 10:55:17;;;;;;;4.38;1.50;;;14.30;63.00;;;;;;5036365;28;20037;-73
2022/12/06 10:57:42;;;;;;;4.00;1.50;;;14.40;62.20;;;;;;5017295;28;20053;-74
2022/12/06 11:00:19;;;;;;;4.95;2.13;;;14.50;63.40;;;;;;5034878;28;20029;-73
2022/12/06 11:03:04;;;;;;;5.50;2.00;;;15.10;62.20;;;;;;5013189;28;20167;-74
2022/12/06 11:05:42;;;;;;;3.20;1.48;;;15.50;59.20;;;;;;5037755;28;20029;-73
2022/12/06 11:08:18;;;;;;;5.55;1.95;;;16.00;58.70;;;;;;5036997;28;20033;-74
2022/12/06 11:10:46;;;;;;;4.97;1.73;;;16.30;57.50;;;;;;5030479;28;20035;-74
2022/12/06 11:13:25;;;;;;;6.15;1.73;;;16.20;57.10;;;;;;5018080;28;20053;-74
2022/12/06 11:16:08;;;;;;;3.63;1.95;;;16.20;59.80;;;;;;5032034;28;20040;-80
2022/12/06 11:18:35;;;;;;;3.45;1.60;;;16.40;55.90;;;;;;5035913;28;20460;-75
2022/12/06 11:21:14;;;;;;;4.80;1.90;;;16.60;55.50;;;;;;5031333;28;20028;-74
2022/12/06 11:24:02;;;;;;;6.53;1.75;;;16.80;55.40;;;;;;5031439;28;20025;-75
2022/12/06 11:26:39;;;;;;;5.30;1.70;;;16.90;55.10;;;;;;5034345;28;20028;-74
2022/12/06 11:29:10;;;;;;;7.25;2.05;;;17.10;54.40;;;;;;5036541;28;20068;-75
2022/12/06 11:31:42;;;;;;;6.22;1.35;;;17.10;53.60;;;;;;5033248;28;20495;-75
2022/12/06 11:34:19;;;;;;;5.38;1.58;;;17.40;68.10;;;;;;5040658;28;20056;-73
2022/12/06 11:36:48;;;;;;;5.35;1.67;;;17.10;55.60;;;;;;5033724;28;20033;-74
2022/12/06 11:39:17;;;;;;;7.28;2.20;;;16.50;63.20;;;;;;5027585;28;20845;-74
2022/12/06 11:41:45;;;;;;;3.53;1.40;;;16.00;55.10;;;;;;5030702;28;20116;-73
2022/12/06 11:44:19;;;;;;;5.00;1.35;;;15.30;55.80;;;;;;5034416;28;20792;-73
2022/12/06 11:46:52;;;;;;;3.95;1.83;;;14.80;58.30;;;;;;5033271;28;20029;-74
2022/12/06 11:49:26;;;;;;;6.43;2.13;;;14.40;59.70;;;;;;5038242;28;20029;-73
2022/12/06 11:51:54;;;;;;;6.75;1.85;;;14.00;60.80;;;;;;5046870;28;20078;-73
2022/12/06 11:54:32;;;;;;;4.10;2.00;;;13.60;62.70;;;;;;5039432;28;20053;-73
2022/12/06 11:57:01;;;;;;;8.73;2.67;;;13.20;62.50;;;;;;5042903;28;20029;-73
2022/12/06 11:59:29;;;;;;;7.35;2.25;;;13.00;66.30;;;;;;5039087;28;20033;-74
2022/12/06 12:01:57;;;;;;;6.88;2.30;;;12.70;65.80;;;;;;5033358;28;20030;-73
2022/12/06 12:04:37;;;;;;;4.65;2.42;;;12.60;66.70;;;;;;5038320;28;20044;-73
2022/12/06 12:07:08;;;;;;;6.05;2.17;;;12.50;67.40;;;;;;5041259;28;20029;-72
2022/12/06 12:09:48;;;;;;;7.90;2.10;;;13.40;74.00;;;;;;5040531;28;20096;-73
2022/12/06 12:12:17;;;;;;;8.73;1.90;;;13.60;64.00;;;;;;5041398;28;20057;-73
2022/12/06 12:14:49;;;;;;;8.40;2.13;;;13.40;64.10;;;;;;5037840;28;20037;-72
2022/12/06 12:17:21;;;;;;;5.28;2.10;;;13.20;63.10;;;;;;5042626;28;20507;-74
2022/12/06 12:20:02;;;;;;;11.05;2.53;;;13.00;64.00;;;;;;5038094;28;20578;-73
2022/12/06 12:22:39;;;;;;;8.38;2.03;;;12.70;65.40;;;;;;5040810;28;20029;-73
2022/12/06 12:25:33;;;;;;;5.78;2.17;;;12.60;65.70;;;;;;5038754;28;20026;-72
2022/12/06 12:28:00;;;;;;;9.18;2.95;;;12.30;68.20;;;;;;5006643;28;20094;-73
2022/12/06 12:30:26;;;;;;;7.32;2.40;;;12.10;67.50;;;;;;5037720;28;20033;-74
2022/12/06 12:33:12;;;;;;;5.93;2.30;;;12.00;68.10;;;;;;5038628;28;20172;-74
2022/12/06 12:35:50;;;;;;;7.80;2.65;;;11.70;68.00;;;;;;5037556;28;20057;-73
2022/12/06 12:38:31;;;;;;;7.53;2.88;;;11.50;68.90;;;;;;5038327;28;20597;-72
2022/12/06 12:41:11;;;;;;;3.90;2.00;;;11.30;69.40;;;;;;5032221;28;20092;-73
2022/12/06 12:43:38;;;;;;;4.85;2.00;;;11.20;70.00;;;;;;5037222;28;20029;-72
2022/12/06 12:46:10;;;;;;;5.70;2.35;;;11.30;72.00;;;;;;5019808;28;20025;-72
2022/12/06 12:48:41;;;;;;;7.35;2.55;;;11.40;71.60;;;;;;5031958;28;20041;-71
2022/12/06 12:51:27;;;;;;;6.70;2.03;;;11.40;70.30;;;;;;5038758;28;20048;-71
2022/12/06 12:53:56;;;;;;;8.43;2.03;;;11.30;68.50;;;;;;5034809;28;20108;-71
2022/12/06 12:56:22;;;;;;;5.97;2.10;;;11.20;68.70;;;;;;5038790;28;20021;-71
2022/12/06 12:58:54;;;;;;;5.32;2.10;;;11.00;69.00;;;;;;5039631;28;20065;-72
2022/12/06 13:01:23;;;;;;;5.68;2.22;;;11.00;70.00;;;;;;5037885;28;20029;-72
2022/12/06 13:03:56;;;;;;;5.57;2.22;;;10.90;70.60;;;;;;5040517;28;20024;-72
2022/12/06 13:06:34;;;;;;;7.22;2.55;;;10.80;69.90;;;;;;5039551;28;20026;-72
2022/12/06 13:09:04;;;;;;;6.93;2.15;;;10.70;69.70;;;;;;5033461;28;20032;-73
2022/12/06 13:11:34;;;;;;;8.18;3.35;;;10.60;70.00;;;;;;5036376;28;20439;-71
2022/12/06 13:14:04;;;;;;;5.88;2.53;;;10.50;71.10;;;;;;5033801;28;20025;-72
2022/12/06 13:16:34;;;;;;;7.77;2.50;;;10.50;71.60;;;;;;5036401;28;20029;-72
2022/12/06 13:19:01;;;;;;;10.20;2.90;;;10.50;71.90;;;;;;5038612;28;20021;-71
2022/12/06 13:21:37;;;;;;;5.53;1.90;;;10.30;72.90;;;;;;5023387;28;20033;-71
2022/12/06 13:24:02;;;;;;;5.65;2.53;;;10.20;73.10;;;;;;5040783;28;20429;-69
2022/12/06 13:26:32;;;;;;;5.95;2.38;;;10.20;73.40;;;;;;5023104;28;20562;-72
2022/12/06 13:29:15;;;;;;;8.05;2.90;;;10.10;74.00;;;;;;5037735;28;20487;-72
2022/12/06 13:31:44;;;;;;;5.95;2.42;;;10.10;73.70;;;;;;5039139;28;20148;-72